Hovedside
METAR-TAF:

METAR-TAF

Lufthavner :

Sogndal, Norge

Sogndal lufthamn. Haukåsen

breddegrad: 61-09N, lengdegrad: 007-08E, høyde over havet: 49 m

Gjeldene værobservasjon

Denne rapporten ble laget for 1 time og 4 minutter siden, klokken 12:50 UTC
Vind 6 kt fra Øst-nordøst
Temperatur -4°C
Luftfuktighet 68%
Trykk 1035 hPa
Sikt 10 km eller mer
Få skyer i en høyde av 2500 ft
Brutte skyer i en høyde av 5500 ft

METAR: ENSG 251250Z 06006KT 9999 FEW025 BKN055 M04/M09 Q1035 RMK WIND 3806FT 23004KT

Tid: 14:54 (13:54 UTC)


TAF: fraværende

Værobservasjoner og værvarsel for over 4000 flyplasser (METAR- og TAF-rapporter).

Tilgjengelige stasjoner er representert av de røde og gule prikkene på kartet.

Hold musepekeren over prikken for å se navnet på stasjonen.

Klikk så for å se værobservasjoner og -varsler.

For å forandre kartet kan du klikke på den grønne knappen med svart kryss for å zoome inn, på den grønne knappen med strek for å zoome ut, eller på de grønne pilene for å se tilstøtende kart.


METAR-TAF: